KDCU/DCU METAR and TAF weather

Enter ICAO airport designator
Station Type Date Time Source
KDCU METAR 2020/02/29 03:53 UTC NOAA

KDCU 290353Z AUTO 29007KT 10SM OVC065 08/M01 A3020 RMK AO2 SLP227 T00781006 $


Station Type Date Time Source
KDCU Decoded METAR 2020/02/29 03:53 UTC NOAA

PRYOR FIELD, AL, United States (KDCU) 34-39N 086-57W 176M
Feb 28, 2020 - 10:53 PM EST / 2020.02.29 0353 UTC
Wind: from the WNW (290 degrees) at 8 MPH (7 KT):0
Visibility: 10 mile(s):0
Sky conditions: overcast
Temperature: 46.0 F (7.8 C)
Dew Point: 30.9 F (-0.6 C)
Relative Humidity: 55%
Pressure (altimeter): 30.2 in. Hg (1022 hPa)
ob: KDCU 290353Z AUTO 29007KT 10SM OVC065 08/M01 A3020 RMK AO2 SLP227 T00781006
cycle: 4

Station Type Date Time Source
KDCU TAF UTC NOAA

Error!

Example: see airport list